sensor_id;sensor_type;location;lat;lon;timestamp;P1;durP1;ratioP1;P2;durP2;ratioP2
9675;SDS011;4876;42.656;23.292;2023-08-24T00:00:50;13.07;;;10.85;;
9675;SDS011;4876;42.656;23.292;2023-08-24T00:03:17;20.17;;;11.00;;
9675;SDS011;4876;42.656;23.292;2023-08-24T00:05:47;16.30;;;10.53;;
9675;SDS011;4876;42.656;23.292;2023-08-24T00:08:14;18.98;;;11.70;;
9675;SDS011;4876;42.656;23.292;2023-08-24T00:10:42;20.05;;;10.30;;
9675;SDS011;4876;42.656;23.292;2023-08-24T00:13:11;19.70;;;10.75;;
9675;SDS011;4876;42.656;23.292;2023-08-24T00:15:38;18.17;;;11.70;;
9675;SDS011;4876;42.656;23.292;2023-08-24T00:18:07;13.40;;;11.27;;
9675;SDS011;4876;42.656;23.292;2023-08-24T00:20:34;14.70;;;10.83;;
9675;SDS011;4876;42.656;23.292;2023-08-24T00:23:02;14.60;;;10.83;;
9675;SDS011;4876;42.656;23.292;2023-08-24T00:25:29;18.77;;;10.65;;
9675;SDS011;4876;42.656;23.292;2023-08-24T00:27:56;15.48;;;10.75;;
9675;SDS011;4876;42.656;23.292;2023-08-24T00:30:23;14.88;;;11.43;;
9675;SDS011;4876;42.656;23.292;2023-08-24T00:32:50;17.15;;;11.00;;
9675;SDS011;4876;42.656;23.292;2023-08-24T00:35:18;12.15;;;10.82;;
9675;SDS011;4876;42.656;23.292;2023-08-24T00:37:45;14.10;;;10.70;;
9675;SDS011;4876;42.656;23.292;2023-08-24T00:40:12;12.63;;;10.55;;
9675;SDS011;4876;42.656;23.292;2023-08-24T00:42:39;14.13;;;10.47;;
9675;SDS011;4876;42.656;23.292;2023-08-24T00:45:07;15.13;;;11.15;;
9675;SDS011;4876;42.656;23.292;2023-08-24T00:47:35;16.92;;;11.75;;
9675;SDS011;4876;42.656;23.292;2023-08-24T00:50:03;15.55;;;11.63;;
9675;SDS011;4876;42.656;23.292;2023-08-24T00:52:33;14.75;;;11.45;;
9675;SDS011;4876;42.656;23.292;2023-08-24T00:55:02;13.63;;;10.63;;
9675;SDS011;4876;42.656;23.292;2023-08-24T00:57:29;13.63;;;9.65;;
9675;SDS011;4876;42.656;23.292;2023-08-24T00:59:57;14.98;;;10.80;;
9675;SDS011;4876;42.656;23.292;2023-08-24T01:02:30;19.98;;;11.35;;
9675;SDS011;4876;42.656;23.292;2023-08-24T01:04:57;17.52;;;11.68;;
9675;SDS011;4876;42.656;23.292;2023-08-24T01:07:25;13.48;;;10.85;;
9675;SDS011;4876;42.656;23.292;2023-08-24T01:09:54;17.15;;;10.85;;
9675;SDS011;4876;42.656;23.292;2023-08-24T01:12:23;20.00;;;11.65;;
9675;SDS011;4876;42.656;23.292;2023-08-24T01:14:57;14.27;;;11.30;;
9675;SDS011;4876;42.656;23.292;2023-08-24T01:17:30;16.92;;;11.60;;
9675;SDS011;4876;42.656;23.292;2023-08-24T01:19:58;14.10;;;11.37;;
9675;SDS011;4876;42.656;23.292;2023-08-24T01:22:32;12.90;;;10.80;;
9675;SDS011;4876;42.656;23.292;2023-08-24T01:25:04;12.52;;;10.82;;
9675;SDS011;4876;42.656;23.292;2023-08-24T01:27:35;20.48;;;11.43;;
9675;SDS011;4876;42.656;23.292;2023-08-24T01:30:04;12.52;;;11.23;;
9675;SDS011;4876;42.656;23.292;2023-08-24T01:32:33;13.57;;;11.30;;
9675;SDS011;4876;42.656;23.292;2023-08-24T01:35:01;15.18;;;11.18;;
9675;SDS011;4876;42.656;23.292;2023-08-24T01:37:30;11.45;;;10.30;;
9675;SDS011;4876;42.656;23.292;2023-08-24T01:39:59;17.63;;;11.13;;
9675;SDS011;4876;42.656;23.292;2023-08-24T01:42:37;22.07;;;11.60;;
9675;SDS011;4876;42.656;23.292;2023-08-24T01:45:12;20.77;;;10.88;;
9675;SDS011;4876;42.656;23.292;2023-08-24T01:47:41;25.90;;;11.40;;
9675;SDS011;4876;42.656;23.292;2023-08-24T01:50:09;18.00;;;10.60;;
9675;SDS011;4876;42.656;23.292;2023-08-24T01:52:36;16.07;;;11.60;;
9675;SDS011;4876;42.656;23.292;2023-08-24T01:55:04;18.83;;;11.97;;
9675;SDS011;4876;42.656;23.292;2023-08-24T01:57:31;11.80;;;10.60;;
9675;SDS011;4876;42.656;23.292;2023-08-24T02:00:00;12.37;;;10.47;;
9675;SDS011;4876;42.656;23.292;2023-08-24T02:02:27;12.37;;;11.13;;
9675;SDS011;4876;42.656;23.292;2023-08-24T02:04:54;14.63;;;12.07;;
9675;SDS011;4876;42.656;23.292;2023-08-24T02:07:21;13.60;;;11.77;;
9675;SDS011;4876;42.656;23.292;2023-08-24T02:09:48;16.03;;;11.33;;
9675;SDS011;4876;42.656;23.292;2023-08-24T02:12:14;13.20;;;11.80;;
9675;SDS011;4876;42.656;23.292;2023-08-24T02:14:41;13.33;;;11.87;;
9675;SDS011;4876;42.656;23.292;2023-08-24T02:17:10;13.37;;;11.43;;
9675;SDS011;4876;42.656;23.292;2023-08-24T02:19:36;15.97;;;11.87;;
9675;SDS011;4876;42.656;23.292;2023-08-24T02:22:03;20.63;;;12.00;;
9675;SDS011;4876;42.656;23.292;2023-08-24T02:24:30;19.20;;;11.80;;
9675;SDS011;4876;42.656;23.292;2023-08-24T02:26:57;16.90;;;11.53;;
9675;SDS011;4876;42.656;23.292;2023-08-24T02:29:24;18.40;;;11.50;;
9675;SDS011;4876;42.656;23.292;2023-08-24T02:31:51;16.30;;;12.30;;
9675;SDS011;4876;42.656;23.292;2023-08-24T02:34:19;12.00;;;10.80;;
9675;SDS011;4876;42.656;23.292;2023-08-24T02:36:46;17.27;;;11.47;;
9675;SDS011;4876;42.656;23.292;2023-08-24T02:39:12;13.13;;;11.17;;
9675;SDS011;4876;42.656;23.292;2023-08-24T02:41:40;15.30;;;10.80;;
9675;SDS011;4876;42.656;23.292;2023-08-24T02:44:06;16.80;;;10.43;;
9675;SDS011;4876;42.656;23.292;2023-08-24T02:46:33;15.07;;;11.50;;
9675;SDS011;4876;42.656;23.292;2023-08-24T02:49:00;17.27;;;11.83;;
9675;SDS011;4876;42.656;23.292;2023-08-24T02:51:29;12.57;;;11.33;;
9675;SDS011;4876;42.656;23.292;2023-08-24T02:53:56;14.47;;;11.70;;
9675;SDS011;4876;42.656;23.292;2023-08-24T02:56:23;14.43;;;10.93;;
9675;SDS011;4876;42.656;23.292;2023-08-24T02:58:50;13.23;;;11.37;;
9675;SDS011;4876;42.656;23.292;2023-08-24T03:01:17;18.97;;;12.10;;
9675;SDS011;4876;42.656;23.292;2023-08-24T03:03:44;21.23;;;12.03;;
9675;SDS011;4876;42.656;23.292;2023-08-24T03:06:11;18.40;;;12.27;;
9675;SDS011;4876;42.656;23.292;2023-08-24T03:08:39;15.87;;;12.50;;
9675;SDS011;4876;42.656;23.292;2023-08-24T03:11:06;17.67;;;13.57;;
9675;SDS011;4876;42.656;23.292;2023-08-24T03:13:35;14.67;;;13.00;;
9675;SDS011;4876;42.656;23.292;2023-08-24T03:16:03;14.90;;;12.30;;
9675;SDS011;4876;42.656;23.292;2023-08-24T03:18:31;18.67;;;14.03;;
9675;SDS011;4876;42.656;23.292;2023-08-24T03:20:58;18.07;;;15.23;;
9675;SDS011;4876;42.656;23.292;2023-08-24T03:23:25;17.87;;;14.47;;
9675;SDS011;4876;42.656;23.292;2023-08-24T03:25:55;17.70;;;15.20;;
9675;SDS011;4876;42.656;23.292;2023-08-24T03:28:22;16.13;;;14.40;;
9675;SDS011;4876;42.656;23.292;2023-08-24T03:30:49;23.90;;;13.47;;
9675;SDS011;4876;42.656;23.292;2023-08-24T03:33:17;28.03;;;14.90;;
9675;SDS011;4876;42.656;23.292;2023-08-24T03:35:44;16.20;;;12.90;;
9675;SDS011;4876;42.656;23.292;2023-08-24T03:38:11;17.03;;;11.73;;
9675;SDS011;4876;42.656;23.292;2023-08-24T03:40:38;13.90;;;11.77;;
9675;SDS011;4876;42.656;23.292;2023-08-24T03:43:06;17.33;;;12.20;;
9675;SDS011;4876;42.656;23.292;2023-08-24T03:45:33;22.10;;;14.00;;
9675;SDS011;4876;42.656;23.292;2023-08-24T03:48:00;19.93;;;17.93;;
9675;SDS011;4876;42.656;23.292;2023-08-24T03:50:27;30.03;;;25.23;;
9675;SDS011;4876;42.656;23.292;2023-08-24T03:52:54;28.07;;;22.97;;
9675;SDS011;4876;42.656;23.292;2023-08-24T03:55:21;29.73;;;22.80;;
9675;SDS011;4876;42.656;23.292;2023-08-24T03:57:48;30.57;;;23.50;;
9675;SDS011;4876;42.656;23.292;2023-08-24T04:00:16;28.10;;;20.10;;
9675;SDS011;4876;42.656;23.292;2023-08-24T04:02:43;27.07;;;21.27;;
9675;SDS011;4876;42.656;23.292;2023-08-24T04:05:11;23.93;;;20.90;;
9675;SDS011;4876;42.656;23.292;2023-08-24T04:07:38;24.97;;;17.90;;
9675;SDS011;4876;42.656;23.292;2023-08-24T04:10:06;27.57;;;19.30;;
9675;SDS011;4876;42.656;23.292;2023-08-24T04:12:34;25.73;;;18.53;;
9675;SDS011;4876;42.656;23.292;2023-08-24T04:15:01;29.77;;;22.50;;
9675;SDS011;4876;42.656;23.292;2023-08-24T04:17:31;34.90;;;25.30;;
9675;SDS011;4876;42.656;23.292;2023-08-24T04:19:57;41.07;;;29.03;;
9675;SDS011;4876;42.656;23.292;2023-08-24T04:22:24;38.70;;;26.47;;
9675;SDS011;4876;42.656;23.292;2023-08-24T04:24:51;35.03;;;24.90;;
9675;SDS011;4876;42.656;23.292;2023-08-24T04:27:18;33.47;;;24.70;;
9675;SDS011;4876;42.656;23.292;2023-08-24T04:29:47;34.63;;;26.40;;
9675;SDS011;4876;42.656;23.292;2023-08-24T04:32:14;41.27;;;27.37;;
9675;SDS011;4876;42.656;23.292;2023-08-24T04:34:42;51.70;;;29.03;;
9675;SDS011;4876;42.656;23.292;2023-08-24T04:37:09;41.17;;;28.10;;
9675;SDS011;4876;42.656;23.292;2023-08-24T04:39:36;34.50;;;26.60;;
9675;SDS011;4876;42.656;23.292;2023-08-24T04:42:02;40.10;;;26.40;;
9675;SDS011;4876;42.656;23.292;2023-08-24T04:44:29;34.30;;;25.27;;
9675;SDS011;4876;42.656;23.292;2023-08-24T04:46:56;36.50;;;25.13;;
9675;SDS011;4876;42.656;23.292;2023-08-24T04:49:23;31.17;;;22.77;;
9675;SDS011;4876;42.656;23.292;2023-08-24T04:51:51;34.03;;;22.53;;
9675;SDS011;4876;42.656;23.292;2023-08-24T04:54:18;28.93;;;23.43;;
9675;SDS011;4876;42.656;23.292;2023-08-24T05:00:13;35.63;;;24.70;;
9675;SDS011;4876;42.656;23.292;2023-08-24T05:02:41;36.10;;;24.77;;
9675;SDS011;4876;42.656;23.292;2023-08-24T05:05:08;31.33;;;23.23;;
9675;SDS011;4876;42.656;23.292;2023-08-24T05:07:38;31.60;;;21.50;;
9675;SDS011;4876;42.656;23.292;2023-08-24T05:10:05;32.53;;;22.67;;
9675;SDS011;4876;42.656;23.292;2023-08-24T05:12:33;31.07;;;22.50;;
9675;SDS011;4876;42.656;23.292;2023-08-24T05:15:00;30.10;;;22.43;;
9675;SDS011;4876;42.656;23.292;2023-08-24T05:17:27;28.60;;;23.17;;
9675;SDS011;4876;42.656;23.292;2023-08-24T05:19:54;38.93;;;21.70;;
9675;SDS011;4876;42.656;23.292;2023-08-24T05:22:21;29.63;;;22.90;;
9675;SDS011;4876;42.656;23.292;2023-08-24T05:24:50;24.10;;;20.93;;
9675;SDS011;4876;42.656;23.292;2023-08-24T05:27:16;32.33;;;21.73;;
9675;SDS011;4876;42.656;23.292;2023-08-24T05:29:43;35.73;;;23.73;;
9675;SDS011;4876;42.656;23.292;2023-08-24T05:32:10;30.57;;;22.87;;
9675;SDS011;4876;42.656;23.292;2023-08-24T05:34:37;31.83;;;24.97;;
9675;SDS011;4876;42.656;23.292;2023-08-24T05:37:04;32.83;;;24.13;;
9675;SDS011;4876;42.656;23.292;2023-08-24T05:39:30;30.70;;;24.33;;
9675;SDS011;4876;42.656;23.292;2023-08-24T05:41:59;26.10;;;21.93;;
9675;SDS011;4876;42.656;23.292;2023-08-24T05:44:25;31.23;;;21.83;;
9675;SDS011;4876;42.656;23.292;2023-08-24T05:46:52;35.43;;;23.17;;
9675;SDS011;4876;42.656;23.292;2023-08-24T05:49:19;34.00;;;23.70;;
9675;SDS011;4876;42.656;23.292;2023-08-24T05:51:46;30.33;;;21.40;;
9675;SDS011;4876;42.656;23.292;2023-08-24T05:54:14;27.40;;;21.20;;
9675;SDS011;4876;42.656;23.292;2023-08-24T05:56:43;32.50;;;23.87;;
9675;SDS011;4876;42.656;23.292;2023-08-24T05:59:11;36.90;;;24.73;;
9675;SDS011;4876;42.656;23.292;2023-08-24T06:01:39;35.13;;;24.93;;
9675;SDS011;4876;42.656;23.292;2023-08-24T06:04:06;34.73;;;27.27;;
9675;SDS011;4876;42.656;23.292;2023-08-24T06:06:34;34.63;;;26.50;;
9675;SDS011;4876;42.656;23.292;2023-08-24T06:09:00;40.53;;;25.33;;
9675;SDS011;4876;42.656;23.292;2023-08-24T06:11:29;35.00;;;24.37;;
9675;SDS011;4876;42.656;23.292;2023-08-24T06:13:56;30.53;;;22.37;;
9675;SDS011;4876;42.656;23.292;2023-08-24T06:16:24;35.13;;;23.93;;
9675;SDS011;4876;42.656;23.292;2023-08-24T06:18:51;37.43;;;23.10;;
9675;SDS011;4876;42.656;23.292;2023-08-24T06:21:18;29.87;;;20.83;;
9675;SDS011;4876;42.656;23.292;2023-08-24T06:23:45;30.73;;;21.60;;
9675;SDS011;4876;42.656;23.292;2023-08-24T06:26:12;36.17;;;22.57;;
9675;SDS011;4876;42.656;23.292;2023-08-24T06:28:39;31.97;;;20.13;;
9675;SDS011;4876;42.656;23.292;2023-08-24T06:31:06;29.27;;;19.57;;
9675;SDS011;4876;42.656;23.292;2023-08-24T06:33:35;25.07;;;19.20;;
9675;SDS011;4876;42.656;23.292;2023-08-24T06:36:03;24.53;;;17.90;;
9675;SDS011;4876;42.656;23.292;2023-08-24T06:38:31;26.43;;;16.87;;
9675;SDS011;4876;42.656;23.292;2023-08-24T06:40:58;23.57;;;16.57;;
9675;SDS011;4876;42.656;23.292;2023-08-24T06:43:25;24.40;;;16.77;;
9675;SDS011;4876;42.656;23.292;2023-08-24T06:45:52;31.07;;;19.20;;
9675;SDS011;4876;42.656;23.292;2023-08-24T06:48:18;24.67;;;16.90;;
9675;SDS011;4876;42.656;23.292;2023-08-24T06:50:47;21.37;;;16.07;;
9675;SDS011;4876;42.656;23.292;2023-08-24T06:53:13;20.92;;;15.30;;
9675;SDS011;4876;42.656;23.292;2023-08-24T06:55:41;25.80;;;15.65;;
9675;SDS011;4876;42.656;23.292;2023-08-24T06:58:07;23.43;;;15.57;;
9675;SDS011;4876;42.656;23.292;2023-08-24T07:00:35;21.40;;;15.77;;
9675;SDS011;4876;42.656;23.292;2023-08-24T07:03:02;20.83;;;14.93;;
9675;SDS011;4876;42.656;23.292;2023-08-24T07:05:29;15.23;;;13.65;;
9675;SDS011;4876;42.656;23.292;2023-08-24T07:08:00;17.63;;;15.13;;
9675;SDS011;4876;42.656;23.292;2023-08-24T07:10:28;19.60;;;14.15;;
9675;SDS011;4876;42.656;23.292;2023-08-24T07:12:55;21.30;;;14.25;;
9675;SDS011;4876;42.656;23.292;2023-08-24T07:15:21;19.08;;;12.73;;
9675;SDS011;4876;42.656;23.292;2023-08-24T07:17:48;22.23;;;14.45;;
9675;SDS011;4876;42.656;23.292;2023-08-24T07:20:15;21.13;;;14.65;;
9675;SDS011;4876;42.656;23.292;2023-08-24T07:22:42;24.27;;;13.82;;
9675;SDS011;4876;42.656;23.292;2023-08-24T07:25:10;21.90;;;14.93;;
9675;SDS011;4876;42.656;23.292;2023-08-24T07:27:37;18.88;;;14.70;;
9675;SDS011;4876;42.656;23.292;2023-08-24T07:30:04;18.25;;;13.60;;
9675;SDS011;4876;42.656;23.292;2023-08-24T07:32:33;20.70;;;13.90;;
9675;SDS011;4876;42.656;23.292;2023-08-24T07:34:59;18.13;;;14.30;;
9675;SDS011;4876;42.656;23.292;2023-08-24T07:37:27;18.45;;;14.65;;
9675;SDS011;4876;42.656;23.292;2023-08-24T07:39:54;17.80;;;15.68;;
9675;SDS011;4876;42.656;23.292;2023-08-24T07:42:22;23.83;;;15.27;;
9675;SDS011;4876;42.656;23.292;2023-08-24T07:44:49;26.08;;;15.93;;
9675;SDS011;4876;42.656;23.292;2023-08-24T07:47:16;22.50;;;14.60;;
9675;SDS011;4876;42.656;23.292;2023-08-24T07:49:43;20.58;;;14.80;;
9675;SDS011;4876;42.656;23.292;2023-08-24T07:52:10;19.10;;;13.98;;
9675;SDS011;4876;42.656;23.292;2023-08-24T07:54:37;19.80;;;15.05;;
9675;SDS011;4876;42.656;23.292;2023-08-24T07:57:04;25.80;;;14.55;;
9675;SDS011;4876;42.656;23.292;2023-08-24T07:59:32;23.98;;;13.85;;
9675;SDS011;4876;42.656;23.292;2023-08-24T08:01:59;16.70;;;14.98;;
9675;SDS011;4876;42.656;23.292;2023-08-24T08:04:26;18.27;;;14.35;;
9675;SDS011;4876;42.656;23.292;2023-08-24T08:06:53;22.58;;;14.55;;
9675;SDS011;4876;42.656;23.292;2023-08-24T08:09:21;20.02;;;13.50;;
9675;SDS011;4876;42.656;23.292;2023-08-24T08:11:48;18.98;;;14.90;;
9675;SDS011;4876;42.656;23.292;2023-08-24T08:14:14;19.23;;;15.65;;
9675;SDS011;4876;42.656;23.292;2023-08-24T08:16:43;19.92;;;14.13;;
9675;SDS011;4876;42.656;23.292;2023-08-24T08:19:09;16.65;;;13.90;;
9675;SDS011;4876;42.656;23.292;2023-08-24T08:21:36;16.48;;;13.40;;
9675;SDS011;4876;42.656;23.292;2023-08-24T08:24:03;18.20;;;13.07;;
9675;SDS011;4876;42.656;23.292;2023-08-24T08:26:30;27.42;;;13.63;;
9675;SDS011;4876;42.656;23.292;2023-08-24T08:28:57;22.80;;;13.32;;
9675;SDS011;4876;42.656;23.292;2023-08-24T08:31:24;15.75;;;13.20;;
9675;SDS011;4876;42.656;23.292;2023-08-24T08:33:52;17.83;;;12.90;;
9675;SDS011;4876;42.656;23.292;2023-08-24T08:36:19;15.88;;;13.77;;
9675;SDS011;4876;42.656;23.292;2023-08-24T08:38:45;21.05;;;13.95;;
9675;SDS011;4876;42.656;23.292;2023-08-24T08:41:12;16.83;;;12.35;;
9675;SDS011;4876;42.656;23.292;2023-08-24T08:43:41;15.30;;;13.35;;
9675;SDS011;4876;42.656;23.292;2023-08-24T08:46:08;20.48;;;13.35;;
9675;SDS011;4876;42.656;23.292;2023-08-24T08:48:36;21.13;;;13.63;;
9675;SDS011;4876;42.656;23.292;2023-08-24T08:51:07;19.27;;;12.55;;
9675;SDS011;4876;42.656;23.292;2023-08-24T08:53:35;18.90;;;12.88;;
9675;SDS011;4876;42.656;23.292;2023-08-24T08:56:02;17.05;;;13.70;;
9675;SDS011;4876;42.656;23.292;2023-08-24T08:58:30;15.55;;;12.82;;
9675;SDS011;4876;42.656;23.292;2023-08-24T09:00:57;19.67;;;13.98;;
9675;SDS011;4876;42.656;23.292;2023-08-24T09:03:25;19.05;;;13.82;;
9675;SDS011;4876;42.656;23.292;2023-08-24T09:05:54;20.92;;;13.65;;
9675;SDS011;4876;42.656;23.292;2023-08-24T09:08:24;13.55;;;12.15;;
9675;SDS011;4876;42.656;23.292;2023-08-24T09:10:53;15.93;;;13.27;;
9675;SDS011;4876;42.656;23.292;2023-08-24T09:13:20;17.88;;;12.82;;
9675;SDS011;4876;42.656;23.292;2023-08-24T09:15:47;14.50;;;13.05;;
9675;SDS011;4876;42.656;23.292;2023-08-24T09:18:18;13.45;;;12.32;;
9675;SDS011;4876;42.656;23.292;2023-08-24T09:20:45;13.90;;;12.57;;
9675;SDS011;4876;42.656;23.292;2023-08-24T09:23:17;17.92;;;13.90;;
9675;SDS011;4876;42.656;23.292;2023-08-24T09:25:46;15.55;;;13.55;;
9675;SDS011;4876;42.656;23.292;2023-08-24T09:28:13;21.02;;;13.65;;
9675;SDS011;4876;42.656;23.292;2023-08-24T09:30:40;14.25;;;12.80;;
9675;SDS011;4876;42.656;23.292;2023-08-24T09:33:12;16.92;;;13.80;;
9675;SDS011;4876;42.656;23.292;2023-08-24T09:35:39;15.02;;;13.50;;
9675;SDS011;4876;42.656;23.292;2023-08-24T09:38:15;15.60;;;14.00;;
9675;SDS011;4876;42.656;23.292;2023-08-24T09:40:46;14.48;;;13.00;;
9675;SDS011;4876;42.656;23.292;2023-08-24T09:43:13;15.27;;;13.88;;
9675;SDS011;4876;42.656;23.292;2023-08-24T09:45:47;15.23;;;13.73;;
9675;SDS011;4876;42.656;23.292;2023-08-24T09:48:14;14.15;;;12.98;;
9675;SDS011;4876;42.656;23.292;2023-08-24T09:50:42;22.08;;;13.00;;
9675;SDS011;4876;42.656;23.292;2023-08-24T09:53:09;13.43;;;12.20;;
9675;SDS011;4876;42.656;23.292;2023-08-24T09:55:42;14.77;;;12.23;;
9675;SDS011;4876;42.656;23.292;2023-08-24T09:58:14;16.45;;;12.60;;
9675;SDS011;4876;42.656;23.292;2023-08-24T10:00:42;16.50;;;13.52;;
9675;SDS011;4876;42.656;23.292;2023-08-24T10:03:12;14.73;;;13.18;;
9675;SDS011;4876;42.656;23.292;2023-08-24T10:05:45;14.48;;;13.07;;
9675;SDS011;4876;42.656;23.292;2023-08-24T10:08:15;14.55;;;13.05;;
9675;SDS011;4876;42.656;23.292;2023-08-24T10:10:43;15.82;;;12.88;;
9675;SDS011;4876;42.656;23.292;2023-08-24T10:13:14;18.55;;;12.85;;
9675;SDS011;4876;42.656;23.292;2023-08-24T10:15:47;16.05;;;12.75;;
9675;SDS011;4876;42.656;23.292;2023-08-24T10:18:14;13.50;;;11.38;;
9675;SDS011;4876;42.656;23.292;2023-08-24T10:20:42;15.23;;;10.23;;
9675;SDS011;4876;42.656;23.292;2023-08-24T10:23:10;14.85;;;11.45;;
9675;SDS011;4876;42.656;23.292;2023-08-24T10:25:39;15.90;;;11.63;;
9675;SDS011;4876;42.656;23.292;2023-08-24T10:28:08;11.05;;;10.00;;
9675;SDS011;4876;42.656;23.292;2023-08-24T10:30:36;15.77;;;10.60;;
9675;SDS011;4876;42.656;23.292;2023-08-24T10:33:04;13.90;;;11.60;;
9675;SDS011;4876;42.656;23.292;2023-08-24T10:35:32;12.90;;;11.43;;
9675;SDS011;4876;42.656;23.292;2023-08-24T10:37:59;13.57;;;11.55;;
9675;SDS011;4876;42.656;23.292;2023-08-24T10:40:32;12.90;;;11.52;;
9675;SDS011;4876;42.656;23.292;2023-08-24T10:43:02;16.05;;;13.05;;
9675;SDS011;4876;42.656;23.292;2023-08-24T10:48:23;13.77;;;12.43;;
9675;SDS011;4876;42.656;23.292;2023-08-24T10:53:51;13.30;;;12.13;;
9675;SDS011;4876;42.656;23.292;2023-08-24T10:56:19;16.65;;;12.43;;
9675;SDS011;4876;42.656;23.292;2023-08-24T10:58:47;13.13;;;11.82;;
9675;SDS011;4876;42.656;23.292;2023-08-24T11:01:39;14.57;;;11.30;;
9675;SDS011;4876;42.656;23.292;2023-08-24T11:04:06;14.30;;;10.15;;
9675;SDS011;4876;42.656;23.292;2023-08-24T11:06:34;26.48;;;11.95;;
9675;SDS011;4876;42.656;23.292;2023-08-24T11:09:10;38.28;;;11.52;;
9675;SDS011;4876;42.656;23.292;2023-08-24T11:11:40;20.52;;;12.52;;
9675;SDS011;4876;42.656;23.292;2023-08-24T11:14:13;16.90;;;12.77;;
9675;SDS011;4876;42.656;23.292;2023-08-24T11:16:43;23.45;;;11.82;;
9675;SDS011;4876;42.656;23.292;2023-08-24T11:19:11;16.40;;;10.93;;
9675;SDS011;4876;42.656;23.292;2023-08-24T11:21:39;13.45;;;10.40;;
9675;SDS011;4876;42.656;23.292;2023-08-24T11:24:06;16.45;;;11.73;;
9675;SDS011;4876;42.656;23.292;2023-08-24T11:26:34;19.13;;;12.30;;
9675;SDS011;4876;42.656;23.292;2023-08-24T11:29:04;18.05;;;11.88;;
9675;SDS011;4876;42.656;23.292;2023-08-24T11:31:32;15.10;;;12.60;;
9675;SDS011;4876;42.656;23.292;2023-08-24T11:34:00;13.85;;;12.45;;
9675;SDS011;4876;42.656;23.292;2023-08-24T11:36:29;15.07;;;11.20;;
9675;SDS011;4876;42.656;23.292;2023-08-24T11:38:56;12.13;;;10.63;;
9675;SDS011;4876;42.656;23.292;2023-08-24T11:41:24;13.35;;;10.18;;
9675;SDS011;4876;42.656;23.292;2023-08-24T11:43:58;16.30;;;9.57;;
9675;SDS011;4876;42.656;23.292;2023-08-24T11:46:27;15.48;;;9.18;;
9675;SDS011;4876;42.656;23.292;2023-08-24T11:48:55;16.02;;;9.88;;
9675;SDS011;4876;42.656;23.292;2023-08-24T11:51:24;18.52;;;10.57;;
9675;SDS011;4876;42.656;23.292;2023-08-24T11:53:51;16.40;;;11.43;;
9675;SDS011;4876;42.656;23.292;2023-08-24T11:56:18;16.73;;;10.88;;
9675;SDS011;4876;42.656;23.292;2023-08-24T11:58:48;11.75;;;10.27;;
9675;SDS011;4876;42.656;23.292;2023-08-24T12:01:16;13.23;;;9.73;;
9675;SDS011;4876;42.656;23.292;2023-08-24T12:03:43;23.83;;;9.82;;
9675;SDS011;4876;42.656;23.292;2023-08-24T12:06:11;13.52;;;9.63;;
9675;SDS011;4876;42.656;23.292;2023-08-24T12:08:40;17.63;;;9.38;;
9675;SDS011;4876;42.656;23.292;2023-08-24T12:11:12;16.70;;;11.63;;
9675;SDS011;4876;42.656;23.292;2023-08-24T12:13:42;17.58;;;10.43;;
9675;SDS011;4876;42.656;23.292;2023-08-24T12:16:10;12.82;;;10.55;;
9675;SDS011;4876;42.656;23.292;2023-08-24T12:18:46;14.90;;;10.75;;
9675;SDS011;4876;42.656;23.292;2023-08-24T12:21:13;12.13;;;10.77;;
9675;SDS011;4876;42.656;23.292;2023-08-24T12:23:42;13.18;;;10.68;;
9675;SDS011;4876;42.656;23.292;2023-08-24T12:26:16;16.70;;;12.15;;
9675;SDS011;4876;42.656;23.292;2023-08-24T12:28:48;17.30;;;11.25;;
9675;SDS011;4876;42.656;23.292;2023-08-24T12:31:15;18.25;;;10.65;;
9675;SDS011;4876;42.656;23.292;2023-08-24T12:33:43;12.93;;;10.15;;
9675;SDS011;4876;42.656;23.292;2023-08-24T12:36:10;16.17;;;10.07;;
9675;SDS011;4876;42.656;23.292;2023-08-24T12:38:37;17.60;;;10.77;;
9675;SDS011;4876;42.656;23.292;2023-08-24T12:41:08;17.33;;;10.00;;
9675;SDS011;4876;42.656;23.292;2023-08-24T12:43:35;12.95;;;10.23;;
9675;SDS011;4876;42.656;23.292;2023-08-24T12:46:01;14.95;;;10.63;;
9675;SDS011;4876;42.656;23.292;2023-08-24T12:48:29;14.55;;;10.30;;
9675;SDS011;4876;42.656;23.292;2023-08-24T12:50:55;12.85;;;11.13;;
9675;SDS011;4876;42.656;23.292;2023-08-24T12:53:22;11.23;;;9.90;;
9675;SDS011;4876;42.656;23.292;2023-08-24T12:55:49;13.15;;;11.25;;
9675;SDS011;4876;42.656;23.292;2023-08-24T12:58:17;17.15;;;10.80;;
9675;SDS011;4876;42.656;23.292;2023-08-24T13:00:45;14.93;;;10.25;;
9675;SDS011;4876;42.656;23.292;2023-08-24T13:03:12;18.25;;;11.23;;
9675;SDS011;4876;42.656;23.292;2023-08-24T13:05:39;16.88;;;10.75;;
9675;SDS011;4876;42.656;23.292;2023-08-24T13:08:05;20.50;;;11.45;;
9675;SDS011;4876;42.656;23.292;2023-08-24T13:10:32;12.75;;;10.63;;
9675;SDS011;4876;42.656;23.292;2023-08-24T13:12:59;21.00;;;10.70;;
9675;SDS011;4876;42.656;23.292;2023-08-24T13:15:27;11.90;;;10.20;;
9675;SDS011;4876;42.656;23.292;2023-08-24T13:17:54;12.18;;;10.75;;
9675;SDS011;4876;42.656;23.292;2023-08-24T13:20:21;13.68;;;11.02;;
9675;SDS011;4876;42.656;23.292;2023-08-24T13:22:48;13.68;;;11.40;;
9675;SDS011;4876;42.656;23.292;2023-08-24T13:25:15;14.38;;;11.95;;
9675;SDS011;4876;42.656;23.292;2023-08-24T13:27:41;15.57;;;12.73;;
9675;SDS011;4876;42.656;23.292;2023-08-24T13:30:08;16.27;;;9.98;;
9675;SDS011;4876;42.656;23.292;2023-08-24T13:32:37;24.67;;;12.77;;
9675;SDS011;4876;42.656;23.292;2023-08-24T13:35:04;18.50;;;12.27;;
9675;SDS011;4876;42.656;23.292;2023-08-24T13:37:31;20.70;;;12.82;;
9675;SDS011;4876;42.656;23.292;2023-08-24T13:39:58;19.65;;;12.50;;
9675;SDS011;4876;42.656;23.292;2023-08-24T13:42:25;14.98;;;12.15;;
9675;SDS011;4876;42.656;23.292;2023-08-24T13:44:52;15.75;;;12.75;;
9675;SDS011;4876;42.656;23.292;2023-08-24T13:47:19;16.77;;;12.25;;
9675;SDS011;4876;42.656;23.292;2023-08-24T13:49:48;16.27;;;12.48;;
9675;SDS011;4876;42.656;23.292;2023-08-24T13:52:15;16.50;;;11.82;;
9675;SDS011;4876;42.656;23.292;2023-08-24T13:54:44;20.65;;;12.75;;
9675;SDS011;4876;42.656;23.292;2023-08-24T13:57:11;18.98;;;12.50;;
9675;SDS011;4876;42.656;23.292;2023-08-24T13:59:38;16.23;;;12.30;;
9675;SDS011;4876;42.656;23.292;2023-08-24T14:02:05;17.80;;;12.85;;
9675;SDS011;4876;42.656;23.292;2023-08-24T14:04:33;20.35;;;12.43;;
9675;SDS011;4876;42.656;23.292;2023-08-24T14:07:01;16.02;;;13.00;;
9675;SDS011;4876;42.656;23.292;2023-08-24T14:09:28;17.75;;;14.23;;
9675;SDS011;4876;42.656;23.292;2023-08-24T14:11:56;14.80;;;12.63;;
9675;SDS011;4876;42.656;23.292;2023-08-24T14:14:23;20.08;;;12.50;;
9675;SDS011;4876;42.656;23.292;2023-08-24T14:16:53;17.10;;;12.65;;
9675;SDS011;4876;42.656;23.292;2023-08-24T14:19:21;32.80;;;13.93;;
9675;SDS011;4876;42.656;23.292;2023-08-24T14:21:47;21.27;;;12.93;;
9675;SDS011;4876;42.656;23.292;2023-08-24T14:24:15;20.15;;;12.85;;
9675;SDS011;4876;42.656;23.292;2023-08-24T14:26:43;16.10;;;12.32;;
9675;SDS011;4876;42.656;23.292;2023-08-24T14:29:11;20.08;;;12.32;;
9675;SDS011;4876;42.656;23.292;2023-08-24T14:31:38;21.70;;;12.23;;
9675;SDS011;4876;42.656;23.292;2023-08-24T14:34:05;17.13;;;12.80;;
9675;SDS011;4876;42.656;23.292;2023-08-24T14:36:32;21.10;;;14.15;;
9675;SDS011;4876;42.656;23.292;2023-08-24T14:38:59;13.10;;;11.80;;
9675;SDS011;4876;42.656;23.292;2023-08-24T14:41:27;18.45;;;12.30;;
9675;SDS011;4876;42.656;23.292;2023-08-24T14:43:54;19.08;;;11.60;;
9675;SDS011;4876;42.656;23.292;2023-08-24T14:46:20;19.65;;;10.70;;
9675;SDS011;4876;42.656;23.292;2023-08-24T14:48:47;20.13;;;10.38;;